Arivaca, Arizona
Current Conditions -  °F | °C
As of 5:54 AM on Saturday 01 Nov 2014 (Local Time) from KOLS Reporting Station
Clear Clear  
Wind Chill: 61°   Ceiling: Unl
Heat Index: 61°   Visibility: 10mi
Dew Point: 46°   Wind: 3mph
Humidity: 58%   Direction: 170°S
Pressure: 30"   Gusts: NA
Location:  31.57°N, 111.33°W
Report Text: KOLS 011254Z AUTO 17003KT 10SM CLR 16/08 A3000 RMK AO2 SLP104 T01610078
Loading
Personal Weather Stations






























Interactive Weather Map
Tropical Storm Tracking
New forecast layout! Learn more

10-Day Weather Forecast

Advertisements
Track Severe Weather on mobile